createdAt,value
2023-01-30T00:02:34.253Z,14.30
2023-01-30T00:07:33.137Z,15.93
2023-01-30T00:12:31.893Z,15.80
2023-01-30T00:17:32.072Z,15.30
2023-01-30T00:22:30.931Z,15.47
2023-01-30T00:27:29.702Z,14.77
2023-01-30T00:32:28.763Z,15.27
2023-01-30T00:37:30.742Z,17.23
2023-01-30T00:42:47.317Z,14.65
2023-01-30T00:47:46.499Z,15.73
2023-01-30T00:52:46.710Z,14.97
2023-01-30T00:57:46.539Z,15.10
2023-01-30T01:02:45.372Z,15.93
2023-01-30T01:07:44.240Z,14.20
2023-01-30T01:12:44.863Z,14.00
2023-01-30T01:17:43.962Z,16.27
2023-01-30T01:22:43.216Z,13.63
2023-01-30T01:27:42.039Z,12.38
2023-01-30T01:32:42.360Z,14.35
2023-01-30T01:37:41.654Z,16.07
2023-01-30T01:42:40.985Z,15.43
2023-01-30T01:47:43.472Z,16.27
2023-01-30T01:52:43.490Z,15.50
2023-01-30T01:57:47.445Z,14.25
2023-01-30T02:02:54.853Z,18.02
2023-01-30T02:08:00.648Z,20.67
2023-01-30T02:13:00.524Z,17.75
2023-01-30T02:18:00.718Z,23.05
2023-01-30T02:23:26.401Z,26.25
2023-01-30T02:28:42.159Z,29.05
2023-01-30T02:33:55.133Z,29.33
2023-01-30T02:39:04.014Z,24.60
2023-01-30T02:44:06.789Z,28.13
2023-01-30T02:49:12.321Z,28.47
2023-01-30T02:54:13.147Z,34.33
2023-01-30T02:59:14.767Z,28.42
2023-01-30T03:04:36.056Z,30.80
2023-01-30T03:09:48.325Z,25.83
2023-01-30T03:14:52.035Z,23.02
2023-01-30T03:19:54.312Z,25.07
2023-01-30T03:24:55.569Z,22.15
2023-01-30T03:29:54.526Z,23.75
2023-01-30T03:34:54.892Z,28.95
2023-01-30T03:39:54.423Z,27.80
2023-01-30T03:44:53.630Z,28.13
2023-01-30T03:49:52.530Z,28.95
2023-01-30T03:54:52.951Z,29.80
2023-01-30T03:59:52.047Z,27.58
2023-01-30T04:04:51.116Z,29.60
2023-01-30T04:09:50.163Z,33.00
2023-01-30T04:14:52.927Z,32.47
2023-01-30T04:20:11.659Z,33.58
2023-01-30T04:25:16.512Z,37.03
2023-01-30T04:30:18.043Z,40.13
2023-01-30T04:35:19.604Z,35.00
2023-01-30T04:40:19.195Z,29.98
2023-01-30T04:45:20.221Z,33.63
2023-01-30T04:50:20.951Z,30.50
2023-01-30T04:55:20.146Z,26.02
2023-01-30T05:00:21.265Z,29.38
2023-01-30T05:05:26.723Z,25.55
2023-01-30T05:10:25.607Z,24.38
2023-01-30T05:15:25.904Z,29.35
2023-01-30T05:20:24.763Z,26.70
2023-01-30T05:25:23.748Z,28.83
2023-01-30T05:30:22.887Z,30.73
2023-01-30T05:35:23.171Z,31.10
2023-01-30T05:40:22.199Z,28.95
2023-01-30T05:45:21.136Z,28.33
2023-01-30T05:50:20.034Z,31.50
2023-01-30T05:55:20.588Z,28.53
2023-01-30T06:00:21.089Z,32.50
2023-01-30T06:05:22.279Z,29.77
2023-01-30T06:10:25.111Z,31.23
2023-01-30T06:15:24.131Z,33.53
2023-01-30T06:20:23.406Z,32.58
2023-01-30T06:25:36.680Z,35.67
2023-01-30T06:30:35.648Z,25.58
2023-01-30T06:35:35.150Z,27.63
2023-01-30T06:40:35.342Z,27.93
2023-01-30T06:45:34.713Z,27.73
2023-01-30T06:50:33.964Z,33.83
2023-01-30T06:55:34.761Z,30.83
2023-01-30T07:00:35.569Z,29.27
2023-01-30T07:05:34.335Z,33.13
2023-01-30T07:10:33.282Z,33.07
2023-01-30T07:15:32.778Z,31.77
2023-01-30T07:20:33.258Z,36.88
2023-01-30T07:25:32.259Z,34.80
2023-01-30T07:30:36.133Z,34.03
2023-01-30T07:35:38.147Z,22.70
2023-01-30T07:40:37.522Z,37.70
2023-01-30T07:45:52.556Z,33.93
2023-01-30T07:50:57.684Z,27.23
2023-01-30T07:55:56.973Z,31.15
2023-01-30T08:00:56.965Z,39.97
2023-01-30T08:05:57.157Z,56.35
2023-01-30T08:10:56.071Z,43.83
2023-01-30T08:15:55.070Z,31.02
2023-01-30T08:20:53.968Z,27.52
2023-01-30T08:25:57.450Z,26.00
2023-01-30T08:30:56.971Z,25.25
2023-01-30T08:35:57.470Z,42.72
2023-01-30T08:40:59.539Z,26.90
2023-01-30T08:45:58.641Z,30.17
2023-01-30T08:50:58.558Z,27.77
2023-01-30T08:55:59.000Z,25.80
2023-01-30T09:00:57.931Z,25.88
2023-01-30T09:05:57.159Z,27.77
2023-01-30T09:11:00.911Z,25.15
2023-01-30T09:16:00.381Z,21.70
2023-01-30T09:21:05.012Z,25.00
2023-01-30T09:26:06.789Z,27.60
2023-01-30T09:31:06.099Z,31.38
2023-01-30T09:36:05.540Z,29.85
2023-01-30T09:41:27.676Z,27.63
2023-01-30T09:46:36.270Z,39.10
2023-01-30T09:51:44.926Z,30.27
2023-01-30T09:56:45.227Z,33.13
2023-01-30T10:01:55.598Z,29.92
2023-01-30T10:07:03.376Z,33.83
2023-01-30T10:12:22.757Z,32.83
2023-01-30T10:17:38.281Z,26.80
2023-01-30T10:22:52.492Z,21.67
2023-01-30T10:27:57.107Z,24.08
2023-01-30T10:33:02.378Z,21.88
2023-01-30T10:38:12.711Z,20.45
2023-01-30T10:43:23.984Z,19.88
2023-01-30T10:48:56.427Z,17.47
2023-01-30T10:54:05.020Z,20.17
2023-01-30T10:59:26.025Z,18.90
2023-01-30T11:04:31.691Z,20.27
2023-01-30T11:09:42.011Z,21.85
2023-01-30T11:14:58.777Z,23.70
2023-01-30T11:19:59.004Z,20.03
2023-01-30T11:25:07.879Z,25.40
2023-01-30T11:30:16.177Z,33.87
2023-01-30T11:35:27.211Z,22.30
2023-01-30T11:40:29.778Z,23.43
2023-01-30T11:45:31.872Z,20.63
2023-01-30T11:50:36.434Z,20.63
2023-01-30T11:55:47.099Z,21.13
2023-01-30T12:00:53.717Z,23.58
2023-01-30T12:06:00.269Z,21.05
2023-01-30T12:11:07.864Z,21.83
2023-01-30T12:16:20.610Z,19.23
2023-01-30T12:21:41.926Z,21.63
2023-01-30T12:26:47.139Z,19.37
2023-01-30T12:31:50.225Z,27.83
2023-01-30T12:37:00.801Z,54.70
2023-01-30T12:42:25.904Z,38.63
2023-01-30T12:47:46.457Z,30.30
2023-01-30T12:53:36.482Z,28.77
2023-01-30T12:58:46.005Z,23.23
2023-01-30T13:03:53.485Z,21.73
2023-01-30T13:09:07.660Z,20.13
2023-01-30T13:14:13.067Z,24.60
2023-01-30T13:19:23.098Z,25.33
2023-01-30T13:24:31.409Z,25.55
2023-01-30T13:29:33.980Z,30.95
2023-01-30T13:34:37.708Z,25.60
2023-01-30T13:44:53.544Z,24.03
2023-01-30T13:50:08.887Z,30.53
2023-01-30T13:55:32.178Z,23.85
2023-01-30T14:00:36.415Z,21.37
2023-01-30T14:06:16.846Z,23.42
2023-01-30T14:11:34.499Z,27.90
2023-01-30T14:16:45.214Z,39.30
2023-01-30T14:21:56.892Z,49.55
2023-01-30T14:27:24.856Z,46.70
2023-01-30T14:32:56.624Z,55.38
2023-01-30T14:38:17.586Z,53.60
2023-01-30T14:43:55.677Z,47.13
2023-01-30T14:48:58.395Z,51.72
2023-01-30T14:54:00.787Z,49.08
2023-01-30T14:59:12.613Z,67.07
2023-01-30T15:04:17.733Z,48.67
2023-01-30T15:09:18.721Z,48.38
2023-01-30T15:14:29.520Z,44.33
2023-01-30T15:19:43.374Z,57.13
2023-01-30T15:25:13.819Z,59.42
2023-01-30T15:30:24.866Z,50.45
2023-01-30T15:35:34.712Z,46.13
2023-01-30T15:40:34.278Z,46.78
2023-01-30T15:45:44.689Z,45.15
2023-01-30T15:50:54.951Z,48.15
2023-01-30T15:55:56.986Z,51.15
2023-01-30T16:01:00.765Z,60.00
2023-01-30T16:11:02.040Z,67.03
2023-01-30T16:16:08.483Z,60.03
2023-01-30T16:21:11.288Z,55.22
2023-01-30T16:26:17.599Z,68.00
2023-01-30T16:31:19.872Z,68.20
2023-01-30T16:36:39.187Z,81.70
2023-01-30T16:41:40.240Z,67.13
2023-01-30T16:46:57.092Z,60.08
2023-01-30T16:52:04.786Z,55.67
2023-01-30T16:57:07.374Z,41.67
2023-01-30T17:02:08.651Z,35.73
2023-01-30T17:07:07.716Z,39.05
2023-01-30T17:12:53.275Z,39.87
2023-01-30T17:17:53.608Z,40.40
2023-01-30T17:22:53.987Z,40.50
2023-01-30T17:27:53.107Z,47.43
2023-01-30T17:32:53.406Z,41.27
2023-01-30T17:38:04.176Z,56.17
2023-01-30T17:43:05.629Z,45.20
2023-01-30T17:48:06.585Z,30.80
2023-01-30T17:53:05.639Z,34.83
2023-01-30T17:58:05.123Z,40.30
2023-01-30T18:03:05.558Z,39.47
2023-01-30T18:08:04.546Z,37.13
2023-01-30T18:13:03.407Z,35.33
2023-01-30T18:18:02.590Z,39.10
2023-01-30T18:23:03.031Z,41.90
2023-01-30T18:28:03.149Z,35.73
2023-01-30T18:33:02.265Z,29.77
2023-01-30T18:38:03.147Z,31.83
2023-01-30T18:43:02.022Z,31.97
2023-01-30T18:48:03.648Z,31.47
2023-01-30T18:53:04.025Z,45.70
2023-01-30T18:58:02.879Z,33.77
2023-01-30T19:03:03.009Z,44.13
2023-01-30T19:08:03.267Z,37.40
2023-01-30T19:13:19.183Z,28.53
2023-01-30T19:18:18.263Z,30.77
2023-01-30T19:23:18.412Z,29.23
2023-01-30T19:28:17.343Z,31.50
2023-01-30T19:33:16.246Z,26.57
2023-01-30T19:38:15.099Z,32.07
2023-01-30T19:43:15.431Z,37.07
2023-01-30T19:48:14.270Z,28.37
2023-01-30T19:53:13.204Z,28.00
2023-01-30T19:58:12.318Z,32.37
2023-01-30T20:03:16.392Z,27.50
2023-01-30T20:08:30.459Z,38.20
2023-01-30T20:13:30.927Z,25.97
2023-01-30T20:18:31.713Z,26.23
2023-01-30T20:23:30.626Z,28.23
2023-01-30T20:28:29.528Z,28.40
2023-01-30T20:33:29.212Z,26.33
2023-01-30T20:38:31.147Z,30.33
2023-01-30T20:43:32.507Z,28.60
2023-01-30T20:48:31.479Z,24.23
2023-01-30T20:53:31.796Z,25.30
2023-01-30T20:58:30.943Z,25.70
2023-01-30T21:03:29.639Z,25.27
2023-01-30T21:08:28.886Z,37.50
2023-01-30T21:13:28.986Z,29.07
2023-01-30T21:18:29.951Z,37.10
2023-01-30T21:23:30.694Z,30.63
2023-01-30T21:28:32.125Z,31.83
2023-01-30T21:33:30.907Z,31.73
2023-01-30T21:38:47.353Z,34.13
2023-01-30T21:43:50.021Z,32.90
2023-01-30T21:48:48.764Z,28.20
2023-01-30T21:53:47.657Z,31.07
2023-01-30T21:58:46.498Z,23.23
2023-01-30T22:03:47.813Z,24.60
2023-01-30T22:08:46.934Z,25.13
2023-01-30T22:13:45.828Z,22.93
2023-01-30T22:18:46.042Z,27.33
2023-01-30T22:23:48.098Z,24.60
2023-01-30T22:28:47.537Z,23.23
2023-01-30T22:33:47.235Z,26.43
2023-01-30T22:38:49.079Z,25.67
2023-01-30T22:43:50.205Z,24.97
2023-01-30T22:48:49.469Z,26.57
2023-01-30T22:53:51.738Z,25.27
2023-01-30T22:58:50.910Z,26.90
2023-01-30T23:03:54.487Z,27.50
2023-01-30T23:08:56.666Z,29.02
2023-01-30T23:13:57.226Z,26.73
2023-01-30T23:18:58.942Z,25.13
2023-01-30T23:24:01.199Z,23.87
2023-01-30T23:29:02.117Z,27.60
2023-01-30T23:34:02.479Z,25.70
2023-01-30T23:39:02.970Z,20.43
2023-01-30T23:44:02.622Z,24.67
2023-01-30T23:49:03.326Z,24.10
2023-01-30T23:54:03.933Z,26.57
2023-01-30T23:59:03.175Z,28.97
